Time,TemperatureF,DewpointF,PressureIn,WindDirection,WindDirectionDegrees,WindSpeedMPH,WindSpeedGustMPH,Humidity,HourlyPrecipIn,Conditions,Clouds,dailyrainin,SolarRadiationWatts/m^2,SoftwareType,DateUTC
2013-01-25 00:09:00,56.3,48.0,30.22,East,80,0.0,1.0,74,0.00,,,0.00,0,weatherlink.com 1.10,2013-01-25 07:09:00,
2013-01-25 00:24:00,55.9,48.0,30.22,East,80,0.0,0.0,75,0.00,,,0.00,0,weatherlink.com 1.10,2013-01-25 07:24:00,
2013-01-25 00:39:00,56.5,47.0,30.21,East,80,0.0,1.0,71,0.00,,,0.00,0,weatherlink.com 1.10,2013-01-25 07:39:00,
2013-01-25 00:54:00,58.3,48.0,30.21,East,81,2.0,7.0,68,0.00,,,0.00,0,weatherlink.com 1.10,2013-01-25 07:54:00,
2013-01-25 01:09:00,57.3,48.0,30.21,East,81,1.0,4.0,72,0.00,,,0.00,0,weatherlink.com 1.10,2013-01-25 08:09:00,
2013-01-25 01:24:00,56.6,48.0,30.20,East,81,0.0,3.0,72,0.00,,,0.00,0,weatherlink.com 1.10,2013-01-25 08:24:00,
2013-01-25 01:39:00,56.2,48.0,30.20,East,81,1.0,2.0,73,0.00,,,0.00,0,weatherlink.com 1.10,2013-01-25 08:39:00,
2013-01-25 01:55:00,55.7,48.0,30.20,East,81,0.0,1.0,74,0.00,,,0.00,0,weatherlink.com 1.10,2013-01-25 08:55:00,
2013-01-25 02:10:00,55.4,48.0,30.20,East,81,0.0,2.0,75,0.00,,,0.00,0,weatherlink.com 1.10,2013-01-25 09:10:00,
2013-01-25 02:24:00,57.0,46.0,30.20,East,82,0.0,4.0,68,0.00,,,0.00,0,weatherlink.com 1.10,2013-01-25 09:24:00,
2013-01-25 02:39:00,56.9,47.0,30.20,East,82,1.0,2.0,69,0.00,,,0.00,0,weatherlink.com 1.10,2013-01-25 09:39:00,
2013-01-25 02:54:00,55.8,48.0,30.19,East,82,2.0,3.0,74,0.00,,,0.00,0,weatherlink.com 1.10,2013-01-25 09:54:00,
2013-01-25 03:09:00,55.1,47.0,30.18,East,82,1.0,3.0,75,0.00,,,0.00,0,weatherlink.com 1.10,2013-01-25 10:09:00,
2013-01-25 03:24:00,54.8,47.0,30.18,East,82,0.0,0.0,76,0.00,,,0.00,0,weatherlink.com 1.10,2013-01-25 10:24:00,
2013-01-25 03:40:00,54.1,47.0,30.18,East,82,0.0,3.0,78,0.00,,,0.00,0,weatherlink.com 1.10,2013-01-25 10:40:00,
2013-01-25 03:54:00,53.6,47.0,30.18,East,82,0.0,2.0,78,0.00,,,0.00,0,weatherlink.com 1.10,2013-01-25 10:54:00,
2013-01-25 04:10:00,53.7,47.0,30.18,East,82,0.0,1.0,77,0.00,,,0.00,0,weatherlink.com 1.10,2013-01-25 11:10:00,
2013-01-25 04:24:00,53.8,47.0,30.18,East,82,0.0,1.0,77,0.00,,,0.00,0,weatherlink.com 1.10,2013-01-25 11:24:00,
2013-01-25 04:39:00,53.9,47.0,30.18,East,82,1.0,3.0,76,0.00,,,0.00,0,weatherlink.com 1.10,2013-01-25 11:39:00,
2013-01-25 04:55:00,54.0,47.0,30.18,East,82,2.0,3.0,77,0.00,,,0.00,0,weatherlink.com 1.10,2013-01-25 11:55:00,
2013-01-25 05:09:00,54.5,47.0,30.18,East,82,2.0,4.0,75,0.00,,,0.00,0,weatherlink.com 1.10,2013-01-25 12:09:00,
2013-01-25 05:24:00,54.5,46.0,30.17,East,82,1.0,3.0,74,0.00,,,0.00,0,weatherlink.com 1.10,2013-01-25 12:24:00,
2013-01-25 05:39:00,54.1,46.0,30.17,East,82,0.0,1.0,74,0.00,,,0.00,0,weatherlink.com 1.10,2013-01-25 12:39:00,
2013-01-25 05:55:00,52.6,46.0,30.18,East,82,0.0,1.0,78,0.00,,,0.00,0,weatherlink.com 1.10,2013-01-25 12:55:00,
2013-01-25 06:10:00,51.9,46.0,30.18,East,82,0.0,2.0,79,0.00,,,0.00,0,weatherlink.com 1.10,2013-01-25 13:10:00,
2013-01-25 06:25:00,51.3,45.0,30.18,East,82,0.0,1.0,80,0.00,,,0.00,0,weatherlink.com 1.10,2013-01-25 13:25:00,
2013-01-25 06:40:00,51.1,45.0,30.19,East,82,0.0,1.0,80,0.00,,,0.00,0,weatherlink.com 1.10,2013-01-25 13:40:00,
2013-01-25 06:59:00,51.0,45.0,30.19,East,82,0.0,0.0,80,0.00,,,0.00,0,weatherlink.com 1.10,2013-01-25 13:59:00,
2013-01-25 07:10:00,52.2,46.0,30.19,ENE,78,1.0,1.0,79,0.00,,,0.00,0,weatherlink.com 1.10,2013-01-25 14:10:00,
2013-01-25 07:25:00,51.9,46.0,30.19,ENE,75,1.0,3.0,80,0.00,,,0.00,0,weatherlink.com 1.10,2013-01-25 14:25:00,
2013-01-25 07:40:00,52.1,46.0,30.19,ENE,75,0.0,1.0,80,0.00,,,0.00,0,weatherlink.com 1.10,2013-01-25 14:40:00,
2013-01-25 07:55:00,53.2,47.0,30.19,NW,309,1.0,2.0,79,0.00,,,0.00,0,weatherlink.com 1.10,2013-01-25 14:55:00,
2013-01-25 08:10:00,55.7,47.0,30.19,West,267,2.0,4.0,73,0.00,,,0.00,0,weatherlink.com 1.10,2013-01-25 15:10:00,
2013-01-25 08:25:00,55.4,47.0,30.19,ESE,107,1.0,2.0,74,0.00,,,0.00,0,weatherlink.com 1.10,2013-01-25 15:25:00,
2013-01-25 08:40:00,56.6,48.0,30.20,NE,46,0.0,2.0,72,0.00,,,0.00,0,weatherlink.com 1.10,2013-01-25 15:40:00,
2013-01-25 08:55:00,58.9,47.0,30.19,North,5,2.0,2.0,66,0.00,,,0.00,0,weatherlink.com 1.10,2013-01-25 15:55:00,
2013-01-25 09:10:00,59.8,47.0,30.20,NNW,342,2.0,2.0,64,0.00,,,0.00,0,weatherlink.com 1.10,2013-01-25 16:10:00,
2013-01-25 09:25:00,61.4,48.0,30.20,West,268,1.0,2.0,61,0.00,,,0.00,0,weatherlink.com 1.10,2013-01-25 16:25:00,
2013-01-25 09:40:00,62.6,48.0,30.21,WSW,245,1.0,1.0,60,0.00,,,0.00,0,weatherlink.com 1.10,2013-01-25 16:40:00,
2013-01-25 09:55:00,63.2,48.0,30.21,SW,219,0.0,2.0,59,0.00,,,0.00,0,weatherlink.com 1.10,2013-01-25 16:55:00,
2013-01-25 10:10:00,65.3,49.0,30.20,WSW,244,1.0,1.0,55,0.00,,,0.00,0,weatherlink.com 1.10,2013-01-25 17:10:00,
2013-01-25 10:25:00,67.0,48.0,30.20,SSE,165,1.0,2.0,51,0.00,,,0.00,0,weatherlink.com 1.10,2013-01-25 17:25:00,
2013-01-25 10:40:00,67.6,48.0,30.20,NNE,15,0.0,2.0,50,0.00,,,0.00,0,weatherlink.com 1.10,2013-01-25 17:40:00,
2013-01-25 10:55:00,68.5,48.0,30.19,NNW,337,0.0,1.0,48,0.00,,,0.00,0,weatherlink.com 1.10,2013-01-25 17:55:00,
2013-01-25 11:10:00,69.4,48.0,30.18,NNW,331,0.0,2.0,46,0.00,,,0.00,0,weatherlink.com 1.10,2013-01-25 18:10:00,
2013-01-25 11:25:00,70.5,46.0,30.18,ENE,67,1.0,3.0,42,0.00,,,0.00,619,weatherlink.com 1.10,2013-01-25 18:25:00,
2013-01-25 11:41:00,72.5,46.0,30.18,ENE,67,0.0,2.0,39,0.00,,,0.00,543,weatherlink.com 1.10,2013-01-25 18:41:00,
2013-01-25 11:55:00,74.1,45.0,30.16,ENE,67,0.0,3.0,36,0.00,,,0.00,364,weatherlink.com 1.10,2013-01-25 18:55:00,
2013-01-25 12:11:00,75.1,45.0,30.16,ENE,67,0.0,3.0,34,0.00,,,0.00,341,weatherlink.com 1.10,2013-01-25 19:11:00,
2013-01-25 12:26:00,75.2,46.0,30.15,ENE,67,3.0,4.0,35,0.00,,,0.00,570,weatherlink.com 1.10,2013-01-25 19:26:00,
2013-01-25 12:41:00,75.3,44.0,30.13,NE,55,2.0,3.0,33,0.00,,,0.00,330,weatherlink.com 1.10,2013-01-25 19:41:00,
2013-01-25 12:56:00,74.9,44.0,30.11,NE,54,0.0,3.0,33,0.00,,,0.00,292,weatherlink.com 1.10,2013-01-25 19:56:00,
2013-01-25 13:11:00,74.9,44.0,30.10,NE,54,1.0,2.0,33,0.00,,,0.00,329,weatherlink.com 1.10,2013-01-25 20:11:00,
2013-01-25 13:26:00,76.2,44.0,30.09,NE,44,1.0,5.0,32,0.00,,,0.00,401,weatherlink.com 1.10,2013-01-25 20:26:00,
2013-01-25 13:41:00,77.8,44.0,30.08,NE,44,2.0,4.0,30,0.00,,,0.00,543,weatherlink.com 1.10,2013-01-25 20:41:00,
2013-01-25 13:56:00,77.6,45.0,30.07,NE,44,1.0,4.0,31,0.00,,,0.00,540,weatherlink.com 1.10,2013-01-25 20:56:00,
2013-01-25 14:11:00,77.5,44.0,30.06,NE,44,0.0,4.0,30,0.00,,,0.00,269,weatherlink.com 1.10,2013-01-25 21:11:00,
2013-01-25 14:26:00,76.8,44.0,30.05,NE,44,0.0,3.0,31,0.00,,,0.00,237,weatherlink.com 1.10,2013-01-25 21:26:00,
2013-01-25 14:41:00,77.0,44.0,30.05,NE,44,2.0,3.0,31,0.00,,,0.00,318,weatherlink.com 1.10,2013-01-25 21:41:00,
2013-01-25 14:56:00,77.7,44.0,30.04,NE,44,0.0,3.0,30,0.00,,,0.00,230,weatherlink.com 1.10,2013-01-25 21:56:00,
2013-01-25 15:11:00,77.7,45.0,30.04,NE,44,0.0,2.0,31,0.00,,,0.00,452,weatherlink.com 1.10,2013-01-25 22:11:00,
2013-01-25 15:26:00,78.9,44.0,30.04,NE,42,2.0,4.0,29,0.00,,,0.00,301,weatherlink.com 1.10,2013-01-25 22:26:00,
2013-01-25 15:41:00,78.8,44.0,30.03,NE,42,0.0,4.0,29,0.00,,,0.00,197,weatherlink.com 1.10,2013-01-25 22:41:00,
2013-01-25 15:56:00,77.3,44.0,30.03,NE,42,1.0,4.0,31,0.00,,,0.00,102,weatherlink.com 1.10,2013-01-25 22:56:00,
2013-01-25 16:12:00,76.4,44.0,30.02,NE,42,0.0,3.0,32,0.00,,,0.00,111,weatherlink.com 1.10,2013-01-25 23:12:00,
2013-01-25 16:26:00,76.5,44.0,30.02,NE,42,0.0,0.0,32,0.00,,,0.00,95,weatherlink.com 1.10,2013-01-25 23:26:00,
2013-01-25 16:41:00,76.3,44.0,30.02,NE,42,1.0,3.0,32,0.00,,,0.00,72,weatherlink.com 1.10,2013-01-25 23:41:00,
2013-01-25 16:56:00,75.7,44.0,30.01,NE,42,2.0,3.0,32,0.00,,,0.00,65,weatherlink.com 1.10,2013-01-25 23:56:00,
2013-01-25 17:12:00,75.1,44.0,30.01,NE,42,0.0,2.0,33,0.00,,,0.00,30,weatherlink.com 1.10,2013-01-26 00:12:00,
2013-01-25 17:26:00,74.3,44.0,30.01,NE,42,0.0,3.0,34,0.00,,,0.00,12,weatherlink.com 1.10,2013-01-26 00:26:00,
2013-01-25 17:41:00,73.5,44.0,30.01,NE,42,0.0,2.0,35,0.00,,,0.00,0,weatherlink.com 1.10,2013-01-26 00:41:00,
2013-01-25 17:56:00,72.4,44.0,30.01,NE,42,0.0,1.0,36,0.00,,,0.00,0,weatherlink.com 1.10,2013-01-26 00:56:00,
2013-01-25 18:11:00,71.6,44.0,30.01,NE,42,1.0,3.0,37,0.00,,,0.00,0,weatherlink.com 1.10,2013-01-26 01:11:00,
2013-01-25 18:26:00,71.0,43.0,30.00,NE,42,0.0,0.0,37,0.00,,,0.00,0,weatherlink.com 1.10,2013-01-26 01:26:00,
2013-01-25 18:41:00,70.1,44.0,30.00,NE,42,0.0,1.0,39,0.00,,,0.00,0,weatherlink.com 1.10,2013-01-26 01:41:00,
2013-01-25 18:56:00,69.5,43.0,30.01,NE,42,0.0,3.0,39,0.00,,,0.00,0,weatherlink.com 1.10,2013-01-26 01:56:00,
2013-01-25 19:11:00,69.3,44.0,30.01,NE,42,1.0,4.0,41,0.00,,,0.00,0,weatherlink.com 1.10,2013-01-26 02:11:00,
2013-01-25 19:26:00,68.8,45.0,30.01,NE,42,0.0,2.0,42,0.00,,,0.00,0,weatherlink.com 1.10,2013-01-26 02:26:00,
2013-01-25 19:41:00,67.7,45.0,30.00,NE,42,0.0,1.0,45,0.00,,,0.00,0,weatherlink.com 1.10,2013-01-26 02:41:00,
2013-01-25 19:57:00,66.7,46.0,30.00,NE,42,1.0,2.0,47,0.00,,,0.00,0,weatherlink.com 1.10,2013-01-26 02:57:00,
2013-01-25 20:11:00,65.8,46.0,30.00,NE,42,0.0,1.0,50,0.00,,,0.00,0,weatherlink.com 1.10,2013-01-26 03:11:00,
2013-01-25 20:27:00,64.7,47.0,30.00,NE,42,0.0,2.0,54,0.00,,,0.00,0,weatherlink.com 1.10,2013-01-26 03:27:00,
2013-01-25 20:41:00,64.3,48.0,30.01,NE,42,0.0,3.0,56,0.00,,,0.00,0,weatherlink.com 1.10,2013-01-26 03:41:00,
2013-01-25 20:56:00,64.1,48.0,30.01,NE,42,0.0,2.0,56,0.00,,,0.00,0,weatherlink.com 1.10,2013-01-26 03:56:00,
2013-01-25 21:11:00,63.4,48.0,30.01,NE,42,0.0,1.0,58,0.00,,,0.00,0,weatherlink.com 1.10,2013-01-26 04:11:00,
2013-01-25 21:26:00,62.7,48.0,30.01,NE,42,0.0,1.0,59,0.00,,,0.00,0,weatherlink.com 1.10,2013-01-26 04:26:00,
2013-01-25 21:41:00,62.2,48.0,30.01,NE,42,0.0,1.0,60,0.00,,,0.00,0,weatherlink.com 1.10,2013-01-26 04:41:00,
2013-01-25 21:57:00,62.2,48.0,30.02,NE,42,0.0,0.0,60,0.00,,,0.00,0,weatherlink.com 1.10,2013-01-26 04:57:00,
2013-01-25 22:12:00,62.3,48.0,30.01,NE,42,0.0,0.0,59,0.00,,,0.00,0,weatherlink.com 1.10,2013-01-26 05:12:00,
2013-01-25 22:27:00,62.2,48.0,30.01,NE,42,0.0,1.0,60,0.00,,,0.00,0,weatherlink.com 1.10,2013-01-26 05:27:00,
2013-01-25 22:42:00,61.6,48.0,30.01,NE,42,1.0,1.0,62,0.00,,,0.00,0,weatherlink.com 1.10,2013-01-26 05:42:00,
2013-01-25 22:57:00,61.4,48.0,30.02,NE,42,0.0,1.0,62,0.00,,,0.00,0,weatherlink.com 1.10,2013-01-26 05:57:00,
2013-01-25 23:12:00,61.3,48.0,30.01,NE,42,2.0,3.0,62,0.00,,,0.00,0,weatherlink.com 1.10,2013-01-26 06:12:00,
2013-01-25 23:27:00,61.8,48.0,30.01,NE,42,0.0,3.0,60,0.00,,,0.00,0,weatherlink.com 1.10,2013-01-26 06:27:00,
2013-01-25 23:42:00,62.0,47.0,30.01,NE,42,0.0,3.0,59,0.00,,,0.00,0,weatherlink.com 1.10,2013-01-26 06:42:00,
2013-01-25 23:57:00,61.4,48.0,30.00,NE,42,1.0,2.0,61,0.00,,,0.00,0,weatherlink.com 1.10,2013-01-26 06:57:00,